Monday, October 21, 2019, 9:46 PM EDT
Back to Local

KMTP, Montauk Airport

Location: Montauk, NY, United States Lat: 41.067
Local Time: 9:46 PM EDT ( 1:46 GMT) Lon: -71.917
Time Zone: US/Eastern Elev: 6 ft

Show me the last for .
Show Decoded

2019-10-21 20:54 METAR KMTP 220054Z AUTO 06007KT 14/07 A3013 RMK AO1 SLP202 T01440072 =
2019-10-21 19:54 METAR KMTP 212354Z AUTO 06007G15KT 15/08 A3012 RMK AO1 SLP198 T01500083 10183
                 20150 50008 =
2019-10-21 18:54 METAR KMTP 212254Z AUTO 05006KT 16/08 A3012 RMK AO1 SLP200 T01560083 =
2019-10-21 17:54 METAR KMTP 212154Z AUTO 06007KT 16/07 A3009 RMK AO1 SLP189 T01610072 =
2019-10-21 16:54 METAR KMTP 212054Z AUTO 05005KT 17/08 A3009 RMK AO1 SLP190 T01720083 53011 =
2019-10-21 15:54 METAR KMTP 211954Z AUTO 06009KT 18/08 A3007 RMK AO1 SLP181 T01780083 =
2019-10-21 14:54 METAR KMTP 211854Z AUTO 05006G16KT 18/09 A3005 RMK AO1 SLP176 T01830089 =
2019-10-21 13:54 METAR KMTP 211754Z AUTO 06009G17KT 17/09 A3006 RMK AO1 SLP179 T01720094 10178
                 20133 50008 =
2019-10-21 12:54 METAR KMTP 211654Z AUTO 03007KT 17/10 A3007 RMK AO1 SLP180 T01670100 =
2019-10-21 11:54 METAR KMTP 211554Z AUTO 03007G15KT 17/11 A3005 RMK AO1 SLP176 T01670106 =
2019-10-21 10:54 METAR KMTP 211454Z AUTO 04009G16KT 15/11 A3004 RMK AO1 SLP171 T01500106 53002 =
2019-10-21 09:54 METAR KMTP 211354Z AUTO 04010G18KT 14/11 A3003 RMK AO1 SLP169 T01440106 =
2019-10-21 08:54 METAR KMTP 211254Z AUTO 04009G22KT 020V080 14/11 A3003 RMK AO1 SLP170 T01390111
                 =
2019-10-21 07:54 METAR KMTP 211154Z AUTO 03013G19KT 13/11 A3003 RMK AO1 SLP169 70017 T01330111
                 10139 20128 53014 =
2019-10-21 06:54 METAR KMTP 211054Z AUTO 05010G16KT 13/11 A3001 RMK AO1 SLP161 T01330111 =
2019-10-21 05:54 METAR KMTP 210954Z AUTO 04009G16KT 13/11 A2999 RMK AO1 SLP156 T01280111 =
2019-10-21 04:54 METAR KMTP 210854Z AUTO 03011G17KT 13/11 A2999 RMK AO1 SLP155 T01330111 53005 =
2019-10-21 03:54 METAR KMTP 210754Z AUTO 04010G17KT 13/11 A2996 RMK AO1 SLP145 T01330111 =
2019-10-21 02:54 METAR KMTP 210654Z AUTO 03010G17KT 13/12 A2997 RMK AO1 SLP148 T01330117 =
2019-10-21 01:54 METAR KMTP 210554Z AUTO 05009G16KT 13/12 A2998 RMK AO1 SLP150 P0005 60013
                 T01330122 10144 20128 58010 =
2019-10-21 00:54 METAR KMTP 210454Z AUTO 04008G18KT 13/12 A3000 RMK AO1 SLP157 T01280117
                 401720044 =
2019-10-20 23:54 METAR KMTP 210354Z AUTO 06007KT 14/12 A3001 RMK AO1 SLP161 T01390117 =
2019-10-20 22:54 METAR KMTP 210254Z AUTO 07005KT 14/12 A3001 RMK AO1 SLP161 P0003 60008 T01390117
                 56007 =
2019-10-20 21:54 METAR KMTP 210154Z AUTO 07004KT 14/12 A3001 RMK AO1 SLP163 P0001 T01390122 =

Support USWX by starting your Amazon purchase here.